FASI

Springs Airfield

Airport
ICAO code
FASI
Summary
ICAO Region
AFI
ICAO Territory
Location

, Gauteng

Serving
Springs
Elevation
5340 ft
Coordinates
26° 14' 54" S , 28° 23' 51" E
Metar
FASI 222200Z AUTO 09003KT //// // ////// 20/16 Q1025

Runways

Designator Length Width Surface Rops
4/22 0 0 ASP No/No
14/32 554 21 GRE No/No
3/21 1600 18 ASP No/No

Airport map

Aerial View

SKYbrary Partners:

Safety knowledge contributed by: